Aérodrome :







RETROUVEZ-NOUS SUR...

 
LOGIN :

S'inscrire | Disclaimer

   EN    FR    IT 

 









Légende :    VFR   VFR Marginal   IFR   IFR Intensif   IFR Très Intensif
Visi : 
Plafond : 
>= 8 km
>= 3000ft
5 à 8 km
1000 à 3000 ft
1500m à 5 km
500 à 1000 ft
800 à 1500m
200 à 500 ft
< 800m
< 200 ft
Symboles :   Orages  Brouillard  Fortes neiges  Fortes précipitations  Vent > 20 kt






- Altitude de l'aérodrome : 74 ft
- Code IATA : PMV


SVMG - Del Caribe Int. Gen Santiago M

DERNIER METAR :
  • 310102Z AUTO 09016KT NCD 28/25 Q1013

METARs EXPIRÉS :
  • 310002Z AUTO 09017KT NCD 33/24 Q1012
  • 302302Z AUTO 09017KT NCD 33/23 Q1012

TAF TAF SVMG
Valide du 31 à 00h jusqu'au 01 à 00h UTC


302200Z 3100/0100 09005KT 9999 SCT016 TX32/18Z TN25/09Z
BECMG 3100/3104 24007KT 9000 -DZ SCT070
FIR SVZM / Amérique du Sud



MET'MAP, la Météo Aéronautique d'un coup d'oeil ! - Copyright ORBIFLY Décembre 2007 - Disclaimer

ORBIFLY MET'MAP TEAM :

Programmation & Développement : Alexandra Zaïnal
Sur une idée originale de : Baudouin d'Aumeries
Assistance à la programmation : Marc-Olivier Méhu
Soutien technique & logistique : Manuel Goepfert

Contact : metmap@orbifly.com




SOURCES & CREDITS :

   NOAA